sensor_id;sensor_type;location;lat;lon;timestamp;P1;durP1;ratioP1;P2;durP2;ratioP2
30743;SDS011;17486;46.738;7.622;2023-04-24T00:02:09;0.20;;;0.20;;
30743;SDS011;17486;46.738;7.622;2023-04-24T00:04:36;0.28;;;0.28;;
30743;SDS011;17486;46.738;7.622;2023-04-24T00:07:05;0.52;;;0.22;;
30743;SDS011;17486;46.738;7.622;2023-04-24T00:09:31;0.45;;;0.10;;
30743;SDS011;17486;46.738;7.622;2023-04-24T00:11:57;0.98;;;0.20;;
30743;SDS011;17486;46.738;7.622;2023-04-24T00:14:23;0.30;;;0.28;;
30743;SDS011;17486;46.738;7.622;2023-04-24T00:16:48;0.65;;;0.20;;
30743;SDS011;17486;46.738;7.622;2023-04-24T00:19:14;0.73;;;0.30;;
30743;SDS011;17486;46.738;7.622;2023-04-24T00:21:40;0.40;;;0.40;;
30743;SDS011;17486;46.738;7.622;2023-04-24T00:24:06;0.50;;;0.50;;
30743;SDS011;17486;46.738;7.622;2023-04-24T00:26:34;1.58;;;1.02;;
30743;SDS011;17486;46.738;7.622;2023-04-24T00:28:59;0.70;;;0.70;;
30743;SDS011;17486;46.738;7.622;2023-04-24T00:31:24;3.05;;;0.80;;
30743;SDS011;17486;46.738;7.622;2023-04-24T00:33:50;1.95;;;0.80;;
30743;SDS011;17486;46.738;7.622;2023-04-24T00:36:15;1.02;;;0.68;;
30743;SDS011;17486;46.738;7.622;2023-04-24T00:38:41;0.60;;;0.60;;
30743;SDS011;17486;46.738;7.622;2023-04-24T00:41:06;0.88;;;0.50;;
30743;SDS011;17486;46.738;7.622;2023-04-24T00:43:32;0.68;;;0.50;;
30743;SDS011;17486;46.738;7.622;2023-04-24T00:45:57;0.35;;;0.30;;
30743;SDS011;17486;46.738;7.622;2023-04-24T00:48:24;0.98;;;0.20;;
30743;SDS011;17486;46.738;7.622;2023-04-24T00:50:50;0.30;;;0.30;;
30743;SDS011;17486;46.738;7.622;2023-04-24T00:53:15;0.65;;;0.22;;
30743;SDS011;17486;46.738;7.622;2023-04-24T00:55:40;0.30;;;0.25;;
30743;SDS011;17486;46.738;7.622;2023-04-24T00:58:06;0.65;;;0.28;;
30743;SDS011;17486;46.738;7.622;2023-04-24T01:00:31;1.17;;;0.30;;
30743;SDS011;17486;46.738;7.622;2023-04-24T01:02:57;1.15;;;0.30;;
30743;SDS011;17486;46.738;7.622;2023-04-24T01:05:24;0.25;;;0.20;;
30743;SDS011;17486;46.738;7.622;2023-04-24T01:07:49;0.20;;;0.20;;
30743;SDS011;17486;46.738;7.622;2023-04-24T01:10:15;0.80;;;0.35;;
30743;SDS011;17486;46.738;7.622;2023-04-24T01:12:42;0.45;;;0.40;;
30743;SDS011;17486;46.738;7.622;2023-04-24T01:15:08;0.47;;;0.40;;
30743;SDS011;17486;46.738;7.622;2023-04-24T01:17:34;0.28;;;0.20;;
30743;SDS011;17486;46.738;7.622;2023-04-24T01:20:00;0.35;;;0.20;;
30743;SDS011;17486;46.738;7.622;2023-04-24T01:22:26;1.10;;;0.30;;
30743;SDS011;17486;46.738;7.622;2023-04-24T01:24:52;0.65;;;0.20;;
30743;SDS011;17486;46.738;7.622;2023-04-24T01:27:18;0.13;;;0.13;;
30743;SDS011;17486;46.738;7.622;2023-04-24T01:29:44;1.92;;;0.28;;
30743;SDS011;17486;46.738;7.622;2023-04-24T01:32:09;0.10;;;0.10;;
30743;SDS011;17486;46.738;7.622;2023-04-24T01:34:35;0.30;;;0.30;;
30743;SDS011;17486;46.738;7.622;2023-04-24T01:37:02;0.47;;;0.10;;
30743;SDS011;17486;46.738;7.622;2023-04-24T01:39:27;0.35;;;0.30;;
30743;SDS011;17486;46.738;7.622;2023-04-24T01:41:53;0.17;;;0.17;;
30743;SDS011;17486;46.738;7.622;2023-04-24T01:44:20;0.13;;;0.13;;
30743;SDS011;17486;46.738;7.622;2023-04-24T01:46:45;1.27;;;0.30;;
30743;SDS011;17486;46.738;7.622;2023-04-24T01:49:11;0.30;;;0.20;;
30743;SDS011;17486;46.738;7.622;2023-04-24T01:51:37;0.40;;;0.40;;
30743;SDS011;17486;46.738;7.622;2023-04-24T01:54:02;0.70;;;0.40;;
30743;SDS011;17486;46.738;7.622;2023-04-24T01:56:28;0.63;;;0.32;;
30743;SDS011;17486;46.738;7.622;2023-04-24T01:58:54;0.47;;;0.30;;
30743;SDS011;17486;46.738;7.622;2023-04-24T02:01:20;1.08;;;0.30;;
30743;SDS011;17486;46.738;7.622;2023-04-24T02:03:46;1.27;;;0.47;;
30743;SDS011;17486;46.738;7.622;2023-04-24T02:06:11;0.47;;;0.45;;
30743;SDS011;17486;46.738;7.622;2023-04-24T02:08:37;1.25;;;0.40;;
30743;SDS011;17486;46.738;7.622;2023-04-24T02:11:02;0.68;;;0.30;;
30743;SDS011;17486;46.738;7.622;2023-04-24T02:13:28;0.32;;;0.20;;
30743;SDS011;17486;46.738;7.622;2023-04-24T02:15:53;0.68;;;0.20;;
30743;SDS011;17486;46.738;7.622;2023-04-24T02:18:18;1.38;;;0.40;;
30743;SDS011;17486;46.738;7.622;2023-04-24T02:20:44;0.10;;;0.08;;
30743;SDS011;17486;46.738;7.622;2023-04-24T02:23:10;1.77;;;0.40;;
30743;SDS011;17486;46.738;7.622;2023-04-24T02:25:35;1.75;;;0.30;;
30743;SDS011;17486;46.738;7.622;2023-04-24T02:28:01;0.63;;;0.28;;
30743;SDS011;17486;46.738;7.622;2023-04-24T02:30:27;0.73;;;0.30;;
30743;SDS011;17486;46.738;7.622;2023-04-24T02:32:52;2.38;;;0.45;;
30743;SDS011;17486;46.738;7.622;2023-04-24T02:35:18;1.45;;;0.47;;
30743;SDS011;17486;46.738;7.622;2023-04-24T02:37:44;3.03;;;0.32;;
30743;SDS011;17486;46.738;7.622;2023-04-24T02:40:09;0.90;;;0.60;;
30743;SDS011;17486;46.738;7.622;2023-04-24T02:42:34;1.23;;;0.40;;
30743;SDS011;17486;46.738;7.622;2023-04-24T02:45:00;0.85;;;0.50;;
30743;SDS011;17486;46.738;7.622;2023-04-24T02:47:25;0.85;;;0.47;;
30743;SDS011;17486;46.738;7.622;2023-04-24T02:49:51;0.35;;;0.35;;
30743;SDS011;17486;46.738;7.622;2023-04-24T02:52:16;0.60;;;0.45;;
30743;SDS011;17486;46.738;7.622;2023-04-24T02:54:42;0.80;;;0.40;;
30743;SDS011;17486;46.738;7.622;2023-04-24T02:57:08;0.38;;;0.32;;
30743;SDS011;17486;46.738;7.622;2023-04-24T02:59:33;0.90;;;0.45;;
30743;SDS011;17486;46.738;7.622;2023-04-24T03:01:58;0.40;;;0.28;;
30743;SDS011;17486;46.738;7.622;2023-04-24T03:04:24;0.13;;;0.10;;
30743;SDS011;17486;46.738;7.622;2023-04-24T03:06:50;0.55;;;0.30;;
30743;SDS011;17486;46.738;7.622;2023-04-24T03:09:17;0.40;;;0.40;;
30743;SDS011;17486;46.738;7.622;2023-04-24T03:11:43;0.98;;;0.40;;
30743;SDS011;17486;46.738;7.622;2023-04-24T03:14:08;0.30;;;0.30;;
30743;SDS011;17486;46.738;7.622;2023-04-24T03:16:34;0.30;;;0.30;;
30743;SDS011;17486;46.738;7.622;2023-04-24T03:18:59;0.22;;;0.15;;
30743;SDS011;17486;46.738;7.622;2023-04-24T03:21:25;0.10;;;0.10;;
30743;SDS011;17486;46.738;7.622;2023-04-24T03:23:51;0.60;;;0.45;;
30743;SDS011;17486;46.738;7.622;2023-04-24T03:26:17;0.25;;;0.20;;
30743;SDS011;17486;46.738;7.622;2023-04-24T03:28:42;0.95;;;0.28;;
30743;SDS011;17486;46.738;7.622;2023-04-24T03:31:07;0.22;;;0.20;;
30743;SDS011;17486;46.738;7.622;2023-04-24T03:33:33;0.10;;;0.10;;
30743;SDS011;17486;46.738;7.622;2023-04-24T03:35:58;0.30;;;0.30;;
30743;SDS011;17486;46.738;7.622;2023-04-24T03:38:23;0.20;;;0.20;;
30743;SDS011;17486;46.738;7.622;2023-04-24T03:40:49;0.13;;;0.13;;
30743;SDS011;17486;46.738;7.622;2023-04-24T03:43:14;0.20;;;0.20;;
30743;SDS011;17486;46.738;7.622;2023-04-24T03:45:39;0.40;;;0.40;;
30743;SDS011;17486;46.738;7.622;2023-04-24T03:48:05;0.30;;;0.20;;
30743;SDS011;17486;46.738;7.622;2023-04-24T03:50:30;1.17;;;0.10;;
30743;SDS011;17486;46.738;7.622;2023-04-24T03:52:55;0.35;;;0.10;;
30743;SDS011;17486;46.738;7.622;2023-04-24T03:55:21;0.47;;;0.15;;
30743;SDS011;17486;46.738;7.622;2023-04-24T03:57:46;0.60;;;0.30;;
30743;SDS011;17486;46.738;7.622;2023-04-24T04:00:12;7.82;;;0.50;;
30743;SDS011;17486;46.738;7.622;2023-04-24T04:02:37;0.88;;;0.43;;
30743;SDS011;17486;46.738;7.622;2023-04-24T04:05:03;0.40;;;0.20;;
30743;SDS011;17486;46.738;7.622;2023-04-24T04:07:28;0.35;;;0.30;;
30743;SDS011;17486;46.738;7.622;2023-04-24T04:09:54;0.25;;;0.22;;
30743;SDS011;17486;46.738;7.622;2023-04-24T04:12:20;0.20;;;0.20;;
30743;SDS011;17486;46.738;7.622;2023-04-24T04:14:45;0.73;;;0.20;;
30743;SDS011;17486;46.738;7.622;2023-04-24T04:17:10;0.25;;;0.25;;
30743;SDS011;17486;46.738;7.622;2023-04-24T04:19:36;0.20;;;0.20;;
30743;SDS011;17486;46.738;7.622;2023-04-24T04:22:02;1.05;;;0.30;;
30743;SDS011;17486;46.738;7.622;2023-04-24T04:24:27;0.20;;;0.20;;
30743;SDS011;17486;46.738;7.622;2023-04-24T04:26:53;1.85;;;0.10;;
30743;SDS011;17486;46.738;7.622;2023-04-24T04:29:21;0.65;;;0.20;;
30743;SDS011;17486;46.738;7.622;2023-04-24T04:31:47;0.20;;;0.20;;
30743;SDS011;17486;46.738;7.622;2023-04-24T04:34:13;0.25;;;0.20;;
30743;SDS011;17486;46.738;7.622;2023-04-24T04:36:39;0.25;;;0.25;;
30743;SDS011;17486;46.738;7.622;2023-04-24T04:39:05;0.30;;;0.20;;
30743;SDS011;17486;46.738;7.622;2023-04-24T04:41:31;0.45;;;0.30;;
30743;SDS011;17486;46.738;7.622;2023-04-24T04:44:00;1.00;;;0.30;;
30743;SDS011;17486;46.738;7.622;2023-04-24T04:46:25;0.65;;;0.25;;
30743;SDS011;17486;46.738;7.622;2023-04-24T04:48:51;0.30;;;0.20;;
30743;SDS011;17486;46.738;7.622;2023-04-24T04:51:18;0.40;;;0.10;;
30743;SDS011;17486;46.738;7.622;2023-04-24T04:53:43;2.22;;;1.45;;
30743;SDS011;17486;46.738;7.622;2023-04-24T04:56:08;3.72;;;2.90;;
30743;SDS011;17486;46.738;7.622;2023-04-24T04:58:34;3.17;;;2.50;;
30743;SDS011;17486;46.738;7.622;2023-04-24T05:00:59;2.53;;;1.35;;
30743;SDS011;17486;46.738;7.622;2023-04-24T05:03:25;0.40;;;0.40;;
30743;SDS011;17486;46.738;7.622;2023-04-24T05:05:50;0.75;;;0.35;;
30743;SDS011;17486;46.738;7.622;2023-04-24T05:08:15;1.23;;;0.45;;
30743;SDS011;17486;46.738;7.622;2023-04-24T05:10:41;0.75;;;0.20;;
30743;SDS011;17486;46.738;7.622;2023-04-24T05:13:06;0.10;;;0.10;;
30743;SDS011;17486;46.738;7.622;2023-04-24T05:15:32;0.82;;;0.60;;
30743;SDS011;17486;46.738;7.622;2023-04-24T05:17:57;0.45;;;0.45;;
30743;SDS011;17486;46.738;7.622;2023-04-24T05:20:22;1.65;;;0.80;;
30743;SDS011;17486;46.738;7.622;2023-04-24T05:22:48;0.80;;;0.80;;
30743;SDS011;17486;46.738;7.622;2023-04-24T05:25:13;0.63;;;0.60;;
30743;SDS011;17486;46.738;7.622;2023-04-24T05:27:39;0.50;;;0.40;;
30743;SDS011;17486;46.738;7.622;2023-04-24T05:30:04;0.40;;;0.40;;
30743;SDS011;17486;46.738;7.622;2023-04-24T05:32:30;0.40;;;0.40;;
30743;SDS011;17486;46.738;7.622;2023-04-24T05:34:55;1.65;;;0.40;;
30743;SDS011;17486;46.738;7.622;2023-04-24T05:37:21;0.50;;;0.50;;
30743;SDS011;17486;46.738;7.622;2023-04-24T05:39:46;1.00;;;0.70;;
30743;SDS011;17486;46.738;7.622;2023-04-24T05:42:12;1.02;;;0.70;;
30743;SDS011;17486;46.738;7.622;2023-04-24T05:44:37;2.00;;;0.70;;
30743;SDS011;17486;46.738;7.622;2023-04-24T05:47:02;1.20;;;1.02;;
30743;SDS011;17486;46.738;7.622;2023-04-24T05:49:28;2.35;;;1.23;;
30743;SDS011;17486;46.738;7.622;2023-04-24T05:51:53;0.80;;;0.80;;
30743;SDS011;17486;46.738;7.622;2023-04-24T05:54:19;1.88;;;0.93;;
30743;SDS011;17486;46.738;7.622;2023-04-24T05:56:44;1.60;;;0.70;;
30743;SDS011;17486;46.738;7.622;2023-04-24T05:59:09;0.70;;;0.60;;
30743;SDS011;17486;46.738;7.622;2023-04-24T06:01:35;1.63;;;0.40;;
30743;SDS011;17486;46.738;7.622;2023-04-24T06:04:01;1.45;;;0.50;;
30743;SDS011;17486;46.738;7.622;2023-04-24T06:06:27;0.40;;;0.40;;
30743;SDS011;17486;46.738;7.622;2023-04-24T06:08:53;1.25;;;0.30;;
30743;SDS011;17486;46.738;7.622;2023-04-24T06:11:20;0.95;;;0.38;;
30743;SDS011;17486;46.738;7.622;2023-04-24T06:13:46;2.20;;;0.28;;
30743;SDS011;17486;46.738;7.622;2023-04-24T06:16:11;0.68;;;0.32;;
30743;SDS011;17486;46.738;7.622;2023-04-24T06:18:37;0.40;;;0.40;;
30743;SDS011;17486;46.738;7.622;2023-04-24T06:21:02;0.30;;;0.30;;
30743;SDS011;17486;46.738;7.622;2023-04-24T06:23:29;0.30;;;0.30;;
30743;SDS011;17486;46.738;7.622;2023-04-24T06:25:57;0.30;;;0.30;;
30743;SDS011;17486;46.738;7.622;2023-04-24T06:28:22;0.40;;;0.40;;
30743;SDS011;17486;46.738;7.622;2023-04-24T06:30:48;0.47;;;0.30;;
30743;SDS011;17486;46.738;7.622;2023-04-24T06:33:13;0.52;;;0.52;;
30743;SDS011;17486;46.738;7.622;2023-04-24T06:35:38;0.40;;;0.30;;
30743;SDS011;17486;46.738;7.622;2023-04-24T06:38:04;0.75;;;0.35;;
30743;SDS011;17486;46.738;7.622;2023-04-24T06:40:29;0.82;;;0.50;;
30743;SDS011;17486;46.738;7.622;2023-04-24T06:42:55;1.17;;;0.50;;
30743;SDS011;17486;46.738;7.622;2023-04-24T06:45:20;0.47;;;0.45;;
30743;SDS011;17486;46.738;7.622;2023-04-24T06:47:46;1.40;;;0.90;;
30743;SDS011;17486;46.738;7.622;2023-04-24T06:50:11;1.83;;;1.50;;
30743;SDS011;17486;46.738;7.622;2023-04-24T06:52:37;1.45;;;0.90;;
30743;SDS011;17486;46.738;7.622;2023-04-24T06:55:03;0.60;;;0.60;;
30743;SDS011;17486;46.738;7.622;2023-04-24T06:57:29;0.80;;;0.57;;
30743;SDS011;17486;46.738;7.622;2023-04-24T06:59:55;1.30;;;0.45;;
30743;SDS011;17486;46.738;7.622;2023-04-24T07:02:21;0.95;;;0.45;;
30743;SDS011;17486;46.738;7.622;2023-04-24T07:04:46;1.73;;;0.50;;
30743;SDS011;17486;46.738;7.622;2023-04-24T07:07:13;0.47;;;0.40;;
30743;SDS011;17486;46.738;7.622;2023-04-24T07:09:39;0.40;;;0.40;;
30743;SDS011;17486;46.738;7.622;2023-04-24T07:12:07;0.77;;;0.40;;
30743;SDS011;17486;46.738;7.622;2023-04-24T07:14:32;0.50;;;0.50;;
30743;SDS011;17486;46.738;7.622;2023-04-24T07:16:58;0.65;;;0.50;;
30743;SDS011;17486;46.738;7.622;2023-04-24T07:19:23;0.68;;;0.50;;
30743;SDS011;17486;46.738;7.622;2023-04-24T07:21:48;1.15;;;0.70;;
30743;SDS011;17486;46.738;7.622;2023-04-24T07:24:14;7.18;;;4.50;;
30743;SDS011;17486;46.738;7.622;2023-04-24T07:26:40;6.78;;;3.17;;
30743;SDS011;17486;46.738;7.622;2023-04-24T07:29:05;2.47;;;1.23;;
30743;SDS011;17486;46.738;7.622;2023-04-24T07:31:31;0.60;;;0.60;;
30743;SDS011;17486;46.738;7.622;2023-04-24T07:33:57;1.08;;;0.70;;
30743;SDS011;17486;46.738;7.622;2023-04-24T07:36:23;1.73;;;0.90;;
30743;SDS011;17486;46.738;7.622;2023-04-24T07:38:49;1.38;;;0.90;;
30743;SDS011;17486;46.738;7.622;2023-04-24T07:41:14;0.80;;;0.60;;
30743;SDS011;17486;46.738;7.622;2023-04-24T07:43:40;2.25;;;0.95;;
30743;SDS011;17486;46.738;7.622;2023-04-24T07:46:07;1.42;;;0.80;;
30743;SDS011;17486;46.738;7.622;2023-04-24T07:48:33;1.00;;;0.60;;
30743;SDS011;17486;46.738;7.622;2023-04-24T07:50:59;0.57;;;0.50;;
30743;SDS011;17486;46.738;7.622;2023-04-24T07:53:24;0.55;;;0.55;;
30743;SDS011;17486;46.738;7.622;2023-04-24T07:55:50;0.85;;;0.52;;
30743;SDS011;17486;46.738;7.622;2023-04-24T07:58:15;1.55;;;0.85;;
30743;SDS011;17486;46.738;7.622;2023-04-24T08:00:40;0.60;;;0.52;;
30743;SDS011;17486;46.738;7.622;2023-04-24T08:03:06;0.90;;;0.60;;
30743;SDS011;17486;46.738;7.622;2023-04-24T08:05:31;1.17;;;0.77;;
30743;SDS011;17486;46.738;7.622;2023-04-24T08:07:57;0.90;;;0.70;;
30743;SDS011;17486;46.738;7.622;2023-04-24T08:10:22;1.13;;;0.80;;
30743;SDS011;17486;46.738;7.622;2023-04-24T08:12:48;0.65;;;0.65;;
30743;SDS011;17486;46.738;7.622;2023-04-24T08:15:14;2.35;;;1.17;;
30743;SDS011;17486;46.738;7.622;2023-04-24T08:17:39;3.00;;;1.10;;
30743;SDS011;17486;46.738;7.622;2023-04-24T08:20:05;2.70;;;1.10;;
30743;SDS011;17486;46.738;7.622;2023-04-24T08:22:35;1.20;;;0.73;;
30743;SDS011;17486;46.738;7.622;2023-04-24T08:25:00;1.10;;;1.00;;
30743;SDS011;17486;46.738;7.622;2023-04-24T08:27:26;1.52;;;0.80;;
30743;SDS011;17486;46.738;7.622;2023-04-24T08:29:56;0.88;;;0.70;;
30743;SDS011;17486;46.738;7.622;2023-04-24T08:32:22;1.13;;;0.98;;
30743;SDS011;17486;46.738;7.622;2023-04-24T08:34:47;2.70;;;1.30;;
30743;SDS011;17486;46.738;7.622;2023-04-24T08:37:12;1.58;;;1.08;;
30743;SDS011;17486;46.738;7.622;2023-04-24T08:39:38;2.42;;;1.05;;
30743;SDS011;17486;46.738;7.622;2023-04-24T08:42:04;1.42;;;1.10;;
30743;SDS011;17486;46.738;7.622;2023-04-24T08:44:33;5.78;;;3.50;;
30743;SDS011;17486;46.738;7.622;2023-04-24T08:47:00;4.47;;;3.03;;
30743;SDS011;17486;46.738;7.622;2023-04-24T08:49:27;1.98;;;1.63;;
30743;SDS011;17486;46.738;7.622;2023-04-24T08:51:54;1.63;;;1.10;;
30743;SDS011;17486;46.738;7.622;2023-04-24T08:54:20;1.55;;;1.08;;
30743;SDS011;17486;46.738;7.622;2023-04-24T08:56:45;1.08;;;1.00;;
30743;SDS011;17486;46.738;7.622;2023-04-24T08:59:13;4.28;;;1.30;;
30743;SDS011;17486;46.738;7.622;2023-04-24T09:01:40;1.40;;;0.90;;
30743;SDS011;17486;46.738;7.622;2023-04-24T09:04:06;0.90;;;0.90;;
30743;SDS011;17486;46.738;7.622;2023-04-24T09:06:34;1.58;;;0.80;;
30743;SDS011;17486;46.738;7.622;2023-04-24T09:09:01;0.82;;;0.80;;
30743;SDS011;17486;46.738;7.622;2023-04-24T09:11:28;0.80;;;0.80;;
30743;SDS011;17486;46.738;7.622;2023-04-24T09:13:55;1.75;;;1.13;;
30743;SDS011;17486;46.738;7.622;2023-04-24T09:16:21;2.53;;;1.75;;
30743;SDS011;17486;46.738;7.622;2023-04-24T09:18:49;2.30;;;1.60;;
30743;SDS011;17486;46.738;7.622;2023-04-24T09:21:14;2.47;;;2.05;;
30743;SDS011;17486;46.738;7.622;2023-04-24T09:23:40;4.15;;;1.92;;
30743;SDS011;17486;46.738;7.622;2023-04-24T09:26:06;2.38;;;1.90;;
30743;SDS011;17486;46.738;7.622;2023-04-24T09:28:37;4.65;;;2.10;;
30743;SDS011;17486;46.738;7.622;2023-04-24T09:31:08;4.05;;;2.00;;
30743;SDS011;17486;46.738;7.622;2023-04-24T09:33:35;2.53;;;2.22;;
30743;SDS011;17486;46.738;7.622;2023-04-24T09:36:01;3.65;;;2.13;;
30743;SDS011;17486;46.738;7.622;2023-04-24T09:38:34;1.60;;;1.50;;
30743;SDS011;17486;46.738;7.622;2023-04-24T09:41:02;2.97;;;1.45;;
30743;SDS011;17486;46.738;7.622;2023-04-24T09:43:31;1.98;;;1.52;;
30743;SDS011;17486;46.738;7.622;2023-04-24T09:45:58;1.92;;;1.30;;
30743;SDS011;17486;46.738;7.622;2023-04-24T09:48:30;1.83;;;1.50;;
30743;SDS011;17486;46.738;7.622;2023-04-24T09:50:57;3.63;;;1.60;;
30743;SDS011;17486;46.738;7.622;2023-04-24T09:53:26;2.33;;;1.35;;
30743;SDS011;17486;46.738;7.622;2023-04-24T09:55:52;2.47;;;1.33;;
30743;SDS011;17486;46.738;7.622;2023-04-24T09:58:18;1.10;;;1.00;;
30743;SDS011;17486;46.738;7.622;2023-04-24T10:00:49;2.30;;;1.40;;
30743;SDS011;17486;46.738;7.622;2023-04-24T10:03:18;3.45;;;2.15;;
30743;SDS011;17486;46.738;7.622;2023-04-24T10:05:44;2.80;;;1.90;;
30743;SDS011;17486;46.738;7.622;2023-04-24T10:08:11;3.00;;;2.05;;
30743;SDS011;17486;46.738;7.622;2023-04-24T10:10:41;2.03;;;1.80;;
30743;SDS011;17486;46.738;7.622;2023-04-24T10:13:11;3.30;;;1.80;;
30743;SDS011;17486;46.738;7.622;2023-04-24T10:15:39;3.17;;;1.92;;
30743;SDS011;17486;46.738;7.622;2023-04-24T10:18:05;3.97;;;1.88;;
30743;SDS011;17486;46.738;7.622;2023-04-24T10:20:31;4.40;;;1.92;;
30743;SDS011;17486;46.738;7.622;2023-04-24T10:22:58;4.40;;;3.20;;
30743;SDS011;17486;46.738;7.622;2023-04-24T10:25:29;5.03;;;3.15;;
30743;SDS011;17486;46.738;7.622;2023-04-24T10:27:57;3.53;;;2.22;;
30743;SDS011;17486;46.738;7.622;2023-04-24T10:30:24;2.05;;;1.70;;
30743;SDS011;17486;46.738;7.622;2023-04-24T10:32:51;3.25;;;2.05;;
30743;SDS011;17486;46.738;7.622;2023-04-24T10:35:16;5.32;;;3.40;;
30743;SDS011;17486;46.738;7.622;2023-04-24T10:37:48;3.05;;;2.45;;
30743;SDS011;17486;46.738;7.622;2023-04-24T10:40:17;3.53;;;2.55;;
30743;SDS011;17486;46.738;7.622;2023-04-24T10:42:46;4.88;;;3.50;;
30743;SDS011;17486;46.738;7.622;2023-04-24T10:45:16;4.88;;;2.10;;
30743;SDS011;17486;46.738;7.622;2023-04-24T10:47:50;2.53;;;1.77;;
30743;SDS011;17486;46.738;7.622;2023-04-24T10:50:22;6.35;;;2.45;;
30743;SDS011;17486;46.738;7.622;2023-04-24T10:52:48;3.85;;;2.10;;
30743;SDS011;17486;46.738;7.622;2023-04-24T10:55:16;2.60;;;1.98;;
30743;SDS011;17486;46.738;7.622;2023-04-24T10:58:05;5.18;;;3.00;;
30743;SDS011;17486;46.738;7.622;2023-04-24T11:00:30;4.82;;;2.60;;
30743;SDS011;17486;46.738;7.622;2023-04-24T11:02:56;6.65;;;3.00;;
30743;SDS011;17486;46.738;7.622;2023-04-24T11:05:22;6.75;;;3.65;;
30743;SDS011;17486;46.738;7.622;2023-04-24T11:08:24;6.85;;;3.58;;
30743;SDS011;17486;46.738;7.622;2023-04-24T11:13:25;9.25;;;3.90;;
30743;SDS011;17486;46.738;7.622;2023-04-24T11:29:38;4.80;;;2.40;;
30743;SDS011;17486;46.738;7.622;2023-04-24T11:34:52;1.92;;;1.60;;
30743;SDS011;17486;46.738;7.622;2023-04-24T11:37:41;3.67;;;2.03;;
30743;SDS011;17486;46.738;7.622;2023-04-24T11:40:08;4.40;;;2.05;;
30743;SDS011;17486;46.738;7.622;2023-04-24T11:42:36;2.15;;;1.38;;
30743;SDS011;17486;46.738;7.622;2023-04-24T11:45:09;2.15;;;1.15;;
30743;SDS011;17486;46.738;7.622;2023-04-24T11:50:04;2.20;;;1.30;;
30743;SDS011;17486;46.738;7.622;2023-04-24T11:52:31;5.05;;;1.60;;
30743;SDS011;17486;46.738;7.622;2023-04-24T11:54:56;1.65;;;1.30;;
30743;SDS011;17486;46.738;7.622;2023-04-24T11:57:23;0.80;;;0.80;;
30743;SDS011;17486;46.738;7.622;2023-04-24T11:59:51;2.17;;;1.30;;
30743;SDS011;17486;46.738;7.622;2023-04-24T12:02:23;1.70;;;1.40;;
30743;SDS011;17486;46.738;7.622;2023-04-24T12:04:50;1.65;;;1.00;;
30743;SDS011;17486;46.738;7.622;2023-04-24T12:07:16;1.75;;;1.25;;
30743;SDS011;17486;46.738;7.622;2023-04-24T12:09:45;2.80;;;1.10;;
30743;SDS011;17486;46.738;7.622;2023-04-24T12:12:12;1.63;;;1.10;;
30743;SDS011;17486;46.738;7.622;2023-04-24T12:14:42;2.28;;;1.13;;
30743;SDS011;17486;46.738;7.622;2023-04-24T12:17:29;1.08;;;1.00;;
30743;SDS011;17486;46.738;7.622;2023-04-24T12:20:00;2.38;;;1.15;;
30743;SDS011;17486;46.738;7.622;2023-04-24T12:25:28;3.05;;;1.00;;
30743;SDS011;17486;46.738;7.622;2023-04-24T12:28:16;2.08;;;1.20;;
30743;SDS011;17486;46.738;7.622;2023-04-24T12:30:43;3.05;;;1.40;;
30743;SDS011;17486;46.738;7.622;2023-04-24T12:33:15;2.45;;;1.35;;
30743;SDS011;17486;46.738;7.622;2023-04-24T12:35:42;1.10;;;0.95;;
30743;SDS011;17486;46.738;7.622;2023-04-24T12:38:08;2.10;;;1.27;;
30743;SDS011;17486;46.738;7.622;2023-04-24T12:40:35;1.15;;;1.05;;
30743;SDS011;17486;46.738;7.622;2023-04-24T12:43:00;2.25;;;1.17;;
30743;SDS011;17486;46.738;7.622;2023-04-24T12:45:26;1.38;;;1.10;;
30743;SDS011;17486;46.738;7.622;2023-04-24T12:47:53;2.22;;;1.58;;
30743;SDS011;17486;46.738;7.622;2023-04-24T12:50:18;2.40;;;1.42;;
30743;SDS011;17486;46.738;7.622;2023-04-24T12:52:44;2.40;;;1.38;;
30743;SDS011;17486;46.738;7.622;2023-04-24T12:55:10;3.60;;;1.80;;
30743;SDS011;17486;46.738;7.622;2023-04-24T12:57:37;3.25;;;1.70;;
30743;SDS011;17486;46.738;7.622;2023-04-24T13:00:04;1.70;;;1.50;;
30743;SDS011;17486;46.738;7.622;2023-04-24T13:02:31;2.83;;;1.65;;
30743;SDS011;17486;46.738;7.622;2023-04-24T13:04:58;3.05;;;1.60;;
30743;SDS011;17486;46.738;7.622;2023-04-24T13:07:24;3.10;;;1.35;;
30743;SDS011;17486;46.738;7.622;2023-04-24T13:09:50;1.77;;;1.52;;
30743;SDS011;17486;46.738;7.622;2023-04-24T13:12:16;1.20;;;1.10;;
30743;SDS011;17486;46.738;7.622;2023-04-24T13:14:42;3.30;;;1.40;;
30743;SDS011;17486;46.738;7.622;2023-04-24T13:17:07;2.55;;;1.60;;
30743;SDS011;17486;46.738;7.622;2023-04-24T13:19:37;2.85;;;1.38;;
30743;SDS011;17486;46.738;7.622;2023-04-24T13:22:04;3.55;;;1.75;;
30743;SDS011;17486;46.738;7.622;2023-04-24T13:24:31;1.92;;;1.20;;
30743;SDS011;17486;46.738;7.622;2023-04-24T13:26:57;2.47;;;1.30;;
30743;SDS011;17486;46.738;7.622;2023-04-24T13:29:23;1.83;;;1.23;;
30743;SDS011;17486;46.738;7.622;2023-04-24T13:31:52;1.95;;;1.30;;
30743;SDS011;17486;46.738;7.622;2023-04-24T13:34:22;2.55;;;1.77;;
30743;SDS011;17486;46.738;7.622;2023-04-24T13:36:49;1.30;;;1.10;;
30743;SDS011;17486;46.738;7.622;2023-04-24T13:39:16;2.08;;;1.23;;
30743;SDS011;17486;46.738;7.622;2023-04-24T13:41:41;2.38;;;1.40;;
30743;SDS011;17486;46.738;7.622;2023-04-24T13:44:07;2.42;;;1.67;;
30743;SDS011;17486;46.738;7.622;2023-04-24T13:46:33;3.88;;;1.10;;
30743;SDS011;17486;46.738;7.622;2023-04-24T13:48:58;2.28;;;1.35;;
30743;SDS011;17486;46.738;7.622;2023-04-24T13:51:27;2.33;;;1.50;;
30743;SDS011;17486;46.738;7.622;2023-04-24T13:53:53;2.72;;;1.15;;
30743;SDS011;17486;46.738;7.622;2023-04-24T13:56:18;2.90;;;1.38;;
30743;SDS011;17486;46.738;7.622;2023-04-24T13:58:45;2.15;;;1.20;;
30743;SDS011;17486;46.738;7.622;2023-04-24T14:01:10;2.13;;;1.20;;
30743;SDS011;17486;46.738;7.622;2023-04-24T14:03:39;2.13;;;1.27;;
30743;SDS011;17486;46.738;7.622;2023-04-24T14:06:05;1.45;;;1.25;;
30743;SDS011;17486;46.738;7.622;2023-04-24T14:08:31;2.97;;;1.60;;
30743;SDS011;17486;46.738;7.622;2023-04-24T14:10:56;3.35;;;1.42;;
30743;SDS011;17486;46.738;7.622;2023-04-24T14:13:22;2.50;;;1.25;;
30743;SDS011;17486;46.738;7.622;2023-04-24T14:15:48;2.05;;;1.50;;
30743;SDS011;17486;46.738;7.622;2023-04-24T14:18:13;1.15;;;1.05;;
30743;SDS011;17486;46.738;7.622;2023-04-24T14:20:39;2.88;;;1.52;;
30743;SDS011;17486;46.738;7.622;2023-04-24T14:23:05;2.83;;;1.40;;
30743;SDS011;17486;46.738;7.622;2023-04-24T14:25:30;1.27;;;1.13;;
30743;SDS011;17486;46.738;7.622;2023-04-24T14:27:55;1.30;;;0.90;;
30743;SDS011;17486;46.738;7.622;2023-04-24T14:30:21;2.58;;;1.15;;
30743;SDS011;17486;46.738;7.622;2023-04-24T14:32:46;1.45;;;1.08;;
30743;SDS011;17486;46.738;7.622;2023-04-24T14:35:12;1.38;;;1.08;;
30743;SDS011;17486;46.738;7.622;2023-04-24T14:37:37;2.40;;;1.10;;
30743;SDS011;17486;46.738;7.622;2023-04-24T14:40:03;2.75;;;1.20;;
30743;SDS011;17486;46.738;7.622;2023-04-24T14:42:31;3.65;;;1.30;;
30743;SDS011;17486;46.738;7.622;2023-04-24T14:44:56;3.65;;;1.42;;
30743;SDS011;17486;46.738;7.622;2023-04-24T14:47:22;1.83;;;1.17;;
30743;SDS011;17486;46.738;7.622;2023-04-24T14:49:47;2.38;;;1.20;;
30743;SDS011;17486;46.738;7.622;2023-04-24T14:52:13;2.33;;;1.30;;
30743;SDS011;17486;46.738;7.622;2023-04-24T14:54:39;3.53;;;1.35;;
30743;SDS011;17486;46.738;7.622;2023-04-24T14:57:04;3.30;;;1.50;;
30743;SDS011;17486;46.738;7.622;2023-04-24T14:59:30;2.33;;;1.30;;
30743;SDS011;17486;46.738;7.622;2023-04-24T15:01:56;1.65;;;1.38;;
30743;SDS011;17486;46.738;7.622;2023-04-24T15:04:25;1.40;;;1.02;;
30743;SDS011;17486;46.738;7.622;2023-04-24T15:06:51;1.40;;;1.38;;
30743;SDS011;17486;46.738;7.622;2023-04-24T15:09:18;3.42;;;1.65;;